En poursuivant votre navigation sur ce site, vous acceptez l'utilisation de cookies pour vous proposer des contenus et services adaptés. Mentions légales.
  

11/09/2021 Mise à jour des tableaux d'analyses décadaires : rubrique climatologie
04/09/2021 Mise en ligne de la synthèse climatologique d'Août 2021 : cliquez ICI
01/09/2021 Mise à jour des tableaux d'analyses décadaires, mensuelles et annuelles : rubrique climatologie
  

NOAA COMPLET DU MOIS

Si l'entête du tableau ne s'affiche pas correctement, => actualisez la page (F5 avec Internet Explorer, Chrome...).
Utilisez l'ascenseur sur la droite des lignes du tableau pour faire défiler verticalement les jours du mois.

TABLEAU DES DONNEES COMPLETES NOAA de JUILLET 2021

DATE TEMPERATURE
sous abri
TEMPARATURE 
au sol
VENT  et  Indice de Refroidissement Eolien  PRECIPITATIONS (en mm/m2)
et Intensité
PRESSION ATMOSPHERIQUE (en hPa) HUMIDITE de l'AIR RADIATIONS SOLAIRES (en W/m2)
Mini Moy. Maxi Mini Moy. Maxi Moyen Rafale I.R.E.
Minii
Précip. jour Cumul mois Intensité Maxi Mini Moy. Maxi Mini Moy. Maxi Pic maxi du jour Total jour
01/07/21 14.6° 19.5° 25.8° 14.4° 20.3° 29.4° 2.6km/h dir OSO 16.1km/h dir OSO 14.6° 0.2 0.2 1016 1017.3 1018.2 53% 77.5% 96% 1171 72 549
02/07/21 11.3° 20.2° 27.3° 10.6° 20.4° 29.4° 3.2km/h dir NNE 20.9km/h dir N 11.3° 0 0.2 1014.9 1016.6 1017.9 47% 70.9% 95% 1039 93 927
03/07/21 15.9° 19.3° 22.3° 15° 19.5° 26.7° 2.3km/h dir SE 17.7km/h dir SE 15.9° 4.8 5 3.6mm/h 1013.9 1014.7 1016 79% 87.7% 94% 715 31 080
04/07/21 15.2° 18.8° 23.3° 14.4° 19.5° 27.8° 3.7km/h dir SE 27.4km/h dir S 15.2° 2.2 7.2 4.2mm/h 1011.3 1012.8 1014.1 67% 87% 96% 1174 45 776
05/07/21 16.4° 22.2° 29.2° 16.7° 22.6° 31.7° 7.6km/h dir SE 35.4km/h dir SE 16.5° 0 7.2 1008 1011.3 1013.8 52% 74.5% 94% 1114 76 855
06/07/21 13.9° 17.9° 23° 14.4° 17.9° 22.2° 5km/h dir SE 37km/h dir SE 13.9° 30.4 37.6 76.2mm/h 1004.5 1010.7 1014.6 67% 87.3% 96% 195 7 952
07/07/21 13.9° 19.3° 25.6° 13.9° 20.6° 28.9° 4km/h dir N 20.9km/h dir N 13.9° 0.2 37.8 1014.5 1015.5 1017.2 54% 79.5% 97% 1164 87 633
08/07/21 15° 17.8° 20.8° 14.4° 18.5° 26.7° 3.9km/h dir OSO 25.7km/h dir NE 15.1° 5.2 43 26.8mm/h 1017.2 1020.3 1023.1 73% 86.8% 96% 1288 40 570
09/07/21 12.7° 19.1° 25.6° 12.8° 19.9° 28.9° 4.5km/h dir O 20.9km/h dir NE 12.7° 0.2 43.2 1019.1 1021.5 1023.3 48% 75.8% 97% 1065 96 063
10/07/21 11.8° 18.7° 27.1° 11.1° 19.2° 31.1° 2.6km/h dir S 29km/h dir N 11.9° 23.6 66.8 548.6mm/h 1013.9 1016.6 1019.3 50% 80.8% 96% 1139 71 008
11/07/21 14.9° 19.9° 26.4° 15° 20.9° 29.4° 2.4km/h dir NNE 16.1km/h dir N 14.9° 0 66.8 1011.2 1015.6 1018 52% 79.5% 97% 1088 81 887
12/07/21 13.7° 18.2° 26° 13.9° 18.8° 30° 5.1km/h dir OSO 27.4km/h dir SO 12.8° 33.6 100.4 50.4mm/h 1006.3 1009.4 1013.5 64% 89.4% 96% 1009 35 718
13/07/21 13.6° 16.3° 21.4° 13.9° 17.7° 26.1° 3.1km/h dir SE 16.1km/h dir ENE 13.6° 21.2 121.6 14mm/h 1010.7 1012.4 1013.9 65% 87.4% 97% 1164 50 636
14/07/21 13.2° 15.1° 16.6° 13.3° 16.1° 18.9° 3.2km/h dir SSE 16.1km/h dir SSO 13.2° 14.6 136.2 9.4mm/h 1012.4 1014.9 1017.8 93% 95% 96% 332 16 961
15/07/21 14.9° 15.9° 16.8° 16.1° 17.4° 18.9° 3.4km/h dir SSE 20.9km/h dir O 14.2° 48 184.2 11mm/h 1016.3 1017.3 1018.3 96% 96.4% 97% 149 8 317
16/07/21 15.7° 17.9° 22.9° 17.2° 20.1° 27.8° 7.9km/h dir O 33.8km/h dir O 15.6° 3.6 187.8 2mm/h 1017.3 1018.5 1020.5 75% 91.5% 96% 1211 43 824
17/07/21 16.4° 20° 25.3° 17.8° 21.2° 27.8° 14km/h dir O 45.1km/h dir O 15.7° 0 187.8 1017.1 1019 1020.4 69% 85.2% 95% 1132 57 559
18/07/21 17.8° 22.8° 27.9° 17.8° 23.3° 30° 17.1km/h dir N 46.7km/h dir O 16.1° 0 187.8 1013 1014.9 1017.4 54% 75.6% 93% 895 90 459
19/07/21 16.9° 23.6° 30° 16.1° 24° 32.8° 11.4km/h dir NNE 38.6km/h dir NNE 16.9° 0 187.8 1012.1 1013.5 1014.3 46% 70.2% 89% 935 90 156
20/07/21 15.5° 22.6° 29.2° 13.9° 22.6° 32.2° 6.4km/h dir N 29km/h dir O 15.5° 0 187.8 1013.7 1014.9 1016.7 48% 71.9% 92% 902 90 375
21/07/21 13.2° 21.3° 28.6° 12.2° 21.5° 31.7° 4km/h dir OSO 19.3km/h dir NE 13.2° 0 187.8 1016.6 1018 1019.2 51% 72.8% 93% 905 89 197
22/07/21 13.6° 21.7° 29.4° 12.8° 22° 32.2° 1.9km/h dir OSO 14.5km/h dir O 13.7° 0 187.8 1015.4 1017.8 1019.5 47% 73.6% 95% 902 89 135
23/07/21 14.8° 23.9° 32.8° 14.4° 24.2° 35° 2.9km/h dir SE 46.7km/h dir SE 14.8° 0 187.8 1006.6 1011.6 1015.8 42% 72.1% 95% 986 78 221
24/07/21 18.1° 21.4° 26.9° 18.3° 22° 32.2° 5.8km/h dir OSO 40.2km/h dir ESE 15.7° 37.6 225.4 185.8mm/h 1006.7 1008.9 1011.2 44% 81% 95% 1062 43 416
25/07/21 17.4° 21.8° 26.9° 17.2° 22.7° 30.6° 1.6km/h dir NNE 12.9km/h dir S 17.4° 0 225.4 1008.4 1009.6 1011 55% 78.6% 95% 1062 66 350
26/07/21 17.8° 21.4° 26.2° 16.7° 21.9° 30° 2.7km/h dir OSO 16.1km/h dir OSO 17.8° 0 225.4 1011 1012.7 1015.1 52% 74.3% 90% 1104 73 313
27/07/21 14.3° 20.2° 26.6° 13.9° 20.8° 30.6° 2.9km/h dir NNE 30.6km/h dir OSO 14.3° 0.2 225.6 1011.6 1013.4 1015.1 57% 80.7% 94% 1136 60 611
28/07/21 16.9° 20.6° 26.4° 16.7° 21.5° 31.1° 2.4km/h dir NNE 16.1km/h dir OSO 16.9° 8.4 234 12.8mm/h 1013.7 1014.6 1015.4 57% 81.8% 95% 1183 60 809
29/07/21 15.4° 21.1° 27.5° 15° 21.9° 29.4° 2.4km/h dir NNE 16.1km/h dir OSO 15.4° 0 234 1011.4 1014.5 1016.9 49% 75.7% 95% 884 86 185
30/07/21 15.6° 20.5° 26.1° 15° 20.9° 28.9° 2.3km/h dir OSO 24.1km/h dir OSO 15.7° 1 235 16mm/h 1010.4 1011.3 1012.6 63% 84.2% 95% 1074 43 787
31/07/21 14.6° 18.6° 23.7° 14.4° 19.4° 27.2° 4.8km/h dir OSO 27.4km/h dir OSO 14.6° 2 237 2.6mm/h 1010.6 1011.8 1013.1 61% 82.9% 94% 993 58 834

RETOUR ACCUEIL


Date de création : 01/08/2021 : 19:15
Catégorie : ANNEE 2020 - MOIS PASSES - JUILLET 2021
Page lue 108 fois


Réactions à cet article


Personne n'a encore laissé de commentaire.
Soyez donc le premier !